Time;durP1;ratioP1;P1;durP2;ratioP2;P2;SDS_P1;SDS_P2;PMS_P1;PMS_P2;Temp;Humidity;BMP_temperature;BMP_pressure;BME280_temperature;BME280_humidity;BME280_pressure;Samples;Min_cycle;Max_cycle;Signal;HPM_P1;HPM_P2
2022/05/09 00:01:04;;;;;;;11.07;3.45;;;9.10;99.90;;;;;;5036407;28;20048;-47
2022/05/09 00:03:31;;;;;;;14.25;3.38;;;9.10;99.90;;;;;;5044388;28;20080;-48
2022/05/09 00:05:56;;;;;;;15.60;3.22;;;9.20;99.90;;;;;;5048431;28;20037;-48
2022/05/09 00:08:22;;;;;;;15.55;4.05;;;9.20;99.90;;;;;;5032427;28;20045;-47
2022/05/09 00:10:48;;;;;;;19.77;4.50;;;9.20;99.90;;;;;;5033065;28;20091;-48
2022/05/09 00:13:13;;;;;;;13.98;3.35;;;9.10;99.90;;;;;;5032996;28;20159;-47
2022/05/09 00:15:39;;;;;;;13.73;3.80;;;9.10;99.90;;;;;;5033109;28;20048;-49
2022/05/09 00:18:05;;;;;;;13.95;3.70;;;9.20;99.90;;;;;;5041686;28;20031;-48
2022/05/09 00:20:31;;;;;;;13.20;3.50;;;9.10;99.90;;;;;;5037682;28;20034;-48
2022/05/09 00:22:56;;;;;;;16.60;3.47;;;8.90;99.90;;;;;;5033177;28;20069;-51
2022/05/09 00:25:27;;;;;;;14.30;3.72;;;9.00;99.90;;;;;;5032922;28;20037;-48
2022/05/09 00:27:53;;;;;;;20.13;4.40;;;8.90;99.90;;;;;;5033747;28;20033;-49
2022/05/09 00:30:19;;;;;;;14.60;4.03;;;9.00;99.90;;;;;;5032875;28;20477;-51
2022/05/09 00:32:45;;;;;;;13.00;3.58;;;8.90;99.90;;;;;;5032649;28;20049;-48
2022/05/09 00:35:12;;;;;;;11.43;3.35;;;8.90;99.90;;;;;;5032658;28;20401;-49
2022/05/09 00:37:39;;;;;;;14.32;3.58;;;8.90;99.90;;;;;;5036089;28;20028;-51
2022/05/09 00:40:08;;;;;;;16.70;4.47;;;8.90;99.90;;;;;;5033100;28;20120;-51
2022/05/09 00:42:35;;;;;;;15.48;3.50;;;8.90;99.90;;;;;;5032068;28;20057;-46
2022/05/09 00:45:02;;;;;;;15.30;3.13;;;8.90;99.90;;;;;;5032595;28;20392;-49
2022/05/09 00:47:28;;;;;;;14.48;3.80;;;8.90;99.90;;;;;;5032442;28;20116;-52
2022/05/09 00:49:59;;;;;;;21.27;3.55;;;8.90;99.90;;;;;;5030987;28;20596;-48
2022/05/09 00:52:50;;;;;;;12.32;3.80;;;8.90;99.90;;;;;;5033220;28;20405;-49
2022/05/09 00:55:45;;;;;;;13.07;3.30;;;9.00;99.90;;;;;;5032212;28;20125;-51
2022/05/09 00:58:23;;;;;;;15.85;3.22;;;8.90;99.90;;;;;;5030841;28;20062;-49
2022/05/09 01:00:51;;;;;;;16.33;3.60;;;8.70;99.90;;;;;;5031925;28;20042;-48
2022/05/09 01:03:25;;;;;;;16.33;4.20;;;8.70;99.90;;;;;;5032357;28;20033;-46
2022/05/09 01:05:51;;;;;;;;;;;8.80;99.90;;;;;;5032130;28;20041;-50
2022/05/09 01:08:21;;;;;;;17.52;3.70;;;8.40;99.90;;;;;;5031655;28;20292;-48
2022/05/09 01:10:47;;;;;;;12.63;3.38;;;8.50;99.90;;;;;;5031997;28;20030;-47
2022/05/09 01:13:15;;;;;;;17.67;4.07;;;8.60;99.90;;;;;;5030378;28;20092;-49
2022/05/09 01:15:43;;;;;;;14.27;3.70;;;8.60;99.90;;;;;;5031950;28;20037;-49
2022/05/09 01:18:12;;;;;;;16.85;3.63;;;8.60;99.90;;;;;;5032030;28;20069;-47
2022/05/09 01:20:38;;;;;;;13.77;3.83;;;8.60;99.90;;;;;;5031970;28;20424;-50
2022/05/09 01:23:05;;;;;;;14.75;4.00;;;8.50;99.90;;;;;;5031756;28;20037;-46
2022/05/09 01:25:32;;;;;;;15.60;3.83;;;8.50;99.90;;;;;;5030767;28;20112;-46
2022/05/09 01:27:59;;;;;;;19.40;4.20;;;8.50;99.90;;;;;;5033744;28;20044;-50
2022/05/09 01:30:44;;;;;;;13.00;3.90;;;8.50;99.90;;;;;;5031611;28;20073;-46
2022/05/09 01:33:35;;;;;;;11.75;4.00;;;8.40;99.90;;;;;;5033118;28;20757;-48
2022/05/09 01:36:08;;;;;;;18.38;4.10;;;8.40;99.90;;;;;;5050523;28;20037;-48
2022/05/09 01:38:44;;;;;;;15.07;3.83;;;8.40;99.90;;;;;;5050972;28;20044;-47
2022/05/09 01:41:09;;;;;;;16.63;4.07;;;8.40;99.90;;;;;;5051297;28;20047;-47
2022/05/09 01:43:40;;;;;;;15.35;3.95;;;8.30;99.90;;;;;;5044013;28;20041;-48
2022/05/09 01:46:11;;;;;;;14.60;3.47;;;8.30;99.90;;;;;;5036238;28;20044;-49
2022/05/09 01:51:21;;;;;;;18.50;4.47;;;8.20;99.90;;;;;;5043472;28;20482;-47
2022/05/09 01:53:52;;;;;;;13.32;4.32;;;8.10;99.90;;;;;;5047463;28;20033;-47
2022/05/09 01:56:23;;;;;;;13.90;4.00;;;8.10;99.90;;;;;;5037192;28;20041;-50
2022/05/09 01:58:49;;;;;;;16.30;4.30;;;8.10;99.90;;;;;;5048679;28;20083;-46
2022/05/09 02:01:17;;;;;;;20.35;4.50;;;8.20;99.90;;;;;;5047120;28;20056;-49
2022/05/09 02:03:46;;;;;;;17.92;4.07;;;8.10;99.90;;;;;;5050928;28;20473;-48
2022/05/09 02:06:12;;;;;;;10.57;3.90;;;8.10;99.90;;;;;;5049866;28;20094;-49
2022/05/09 02:08:39;;;;;;;15.40;3.85;;;8.10;99.90;;;;;;5035151;28;20410;-49
2022/05/09 02:11:05;;;;;;;18.25;4.03;;;8.00;99.90;;;;;;5030737;28;20095;-51
2022/05/09 02:13:31;;;;;;;18.52;4.03;;;7.80;99.90;;;;;;5044719;28;20037;-49
2022/05/09 02:15:57;;;;;;;17.17;4.20;;;7.80;99.90;;;;;;5047016;28;20079;-49
2022/05/09 02:18:23;;;;;;;16.35;4.32;;;7.80;99.90;;;;;;5043025;28;20071;-47
2022/05/09 02:20:49;;;;;;;20.98;4.47;;;7.90;99.90;;;;;;5047869;28;20091;-49
2022/05/09 02:23:17;;;;;;;17.17;4.55;;;7.90;99.90;;;;;;5045727;28;20041;-49
2022/05/09 02:25:45;;;;;;;18.15;4.63;;;7.90;99.90;;;;;;5050536;28;20369;-47
2022/05/09 02:28:12;;;;;;;16.38;4.38;;;7.90;99.90;;;;;;5047933;28;20409;-47
2022/05/09 02:30:39;;;;;;;17.27;4.47;;;7.90;99.90;;;;;;5050807;28;20043;-50
2022/05/09 02:33:07;;;;;;;12.90;4.20;;;7.80;99.90;;;;;;5050555;28;20044;-49
2022/05/09 02:35:34;;;;;;;19.20;4.75;;;7.80;99.90;;;;;;5045502;28;20041;-50
2022/05/09 02:38:00;;;;;;;17.67;4.30;;;7.70;99.90;;;;;;5049804;28;20538;-48
2022/05/09 02:40:26;;;;;;;17.90;4.35;;;7.80;99.90;;;;;;5046664;28;20376;-51
2022/05/09 02:42:53;;;;;;;19.02;3.90;;;7.70;99.90;;;;;;5047423;28;20397;-47
2022/05/09 02:45:20;;;;;;;16.10;4.30;;;7.70;99.90;;;;;;5042663;28;20041;-47
2022/05/09 02:47:47;;;;;;;15.82;4.22;;;7.60;99.90;;;;;;5045733;28;20045;-51
2022/05/09 02:50:14;;;;;;;15.45;4.60;;;7.60;99.90;;;;;;5047017;28;20040;-47
2022/05/09 02:52:40;;;;;;;20.85;4.50;;;7.40;99.90;;;;;;5048410;28;20037;-49
2022/05/09 02:55:08;;;;;;;16.38;4.38;;;7.50;99.90;;;;;;5050126;28;20064;-50
2022/05/09 02:57:34;;;;;;;15.68;3.75;;;7.50;99.90;;;;;;5050222;28;20095;-48
2022/05/09 03:00:00;;;;;;;17.13;4.20;;;7.50;99.90;;;;;;5050285;28;20419;-49
2022/05/09 03:02:27;;;;;;;18.65;4.93;;;7.40;99.90;;;;;;5045748;28;20049;-48
2022/05/09 03:04:52;;;;;;;18.67;4.40;;;7.50;99.90;;;;;;5047140;28;20044;-50
2022/05/09 03:07:19;;;;;;;15.88;4.60;;;7.40;99.90;;;;;;5046088;28;20041;-48
2022/05/09 03:09:47;;;;;;;13.90;5.25;;;7.30;99.90;;;;;;5049884;28;20044;-51
2022/05/09 03:12:14;;;;;;;16.38;4.85;;;7.40;99.90;;;;;;5045955;28;20045;-47
2022/05/09 03:14:40;;;;;;;16.48;4.15;;;7.50;99.90;;;;;;5052237;28;20055;-48
2022/05/09 03:17:07;;;;;;;12.07;4.10;;;7.50;99.90;;;;;;5048794;28;20033;-47
2022/05/09 03:19:33;;;;;;;17.50;4.72;;;7.40;99.90;;;;;;5034043;28;20477;-50
2022/05/09 03:22:00;;;;;;;17.42;4.80;;;7.30;99.90;;;;;;5047549;28;20366;-46
2022/05/09 03:24:26;;;;;;;14.50;4.47;;;7.30;99.90;;;;;;5050274;28;20080;-50
2022/05/09 03:26:52;;;;;;;14.65;4.38;;;7.30;99.90;;;;;;5048653;28;20076;-49
2022/05/09 03:29:20;;;;;;;19.98;5.43;;;7.20;99.90;;;;;;5052984;28;20044;-47
2022/05/09 03:31:47;;;;;;;16.52;5.00;;;7.20;99.90;;;;;;5048199;28;20112;-46
2022/05/09 03:34:14;;;;;;;14.45;4.82;;;7.10;99.90;;;;;;5053490;28;20128;-48
2022/05/09 03:36:39;;;;;;;18.48;4.63;;;7.00;99.90;;;;;;5052437;28;20408;-50
2022/05/09 03:39:06;;;;;;;16.45;4.68;;;7.20;99.90;;;;;;5051321;28;20087;-46
2022/05/09 03:41:31;;;;;;;23.23;4.88;;;7.10;99.90;;;;;;5048094;28;20043;-50
2022/05/09 03:43:57;;;;;;;17.40;4.53;;;7.10;99.90;;;;;;5047208;28;20485;-48
2022/05/09 03:46:23;;;;;;;20.80;5.57;;;7.00;99.90;;;;;;5052038;28;20072;-47
2022/05/09 03:48:48;;;;;;;21.95;5.57;;;7.20;99.90;;;;;;5046801;28;20041;-47
2022/05/09 03:51:14;;;;;;;16.70;4.93;;;7.10;99.90;;;;;;5048340;28;20033;-49
2022/05/09 03:53:40;;;;;;;18.05;5.15;;;7.00;99.90;;;;;;5038663;28;20052;-47
2022/05/09 03:56:07;;;;;;;15.65;5.00;;;7.00;99.90;;;;;;5033914;28;20054;-47
2022/05/09 03:58:33;;;;;;;18.60;4.65;;;7.00;99.90;;;;;;5049671;28;20048;-51
2022/05/09 04:00:59;;;;;;;18.98;5.18;;;6.80;99.90;;;;;;5053216;28;20047;-49
2022/05/09 04:03:25;;;;;;;16.73;4.97;;;6.90;99.90;;;;;;5053142;28;20029;-49
2022/05/09 04:05:51;;;;;;;20.10;5.53;;;7.00;99.90;;;;;;5052946;28;20036;-48
2022/05/09 04:08:20;;;;;;;16.55;4.90;;;7.00;99.90;;;;;;5034531;28;20045;-51
2022/05/09 04:10:47;;;;;;;15.98;5.28;;;6.90;99.90;;;;;;5053208;28;20029;-47
2022/05/09 04:13:14;;;;;;;14.52;5.43;;;6.80;99.90;;;;;;5052986;28;20044;-48
2022/05/09 04:18:28;;;;;;;17.15;5.28;;;6.90;99.90;;;;;;5051761;28;20052;-49
2022/05/09 04:20:54;;;;;;;21.10;5.95;;;7.00;99.90;;;;;;5038846;28;20033;-47
2022/05/09 04:23:20;;;;;;;18.17;5.18;;;6.90;99.90;;;;;;5039182;28;20051;-50
2022/05/09 04:25:46;;;;;;;19.92;5.60;;;6.80;99.90;;;;;;5032508;28;20080;-47
2022/05/09 04:28:12;;;;;;;24.65;6.07;;;6.90;99.90;;;;;;5042508;28;20044;-49
2022/05/09 04:30:39;;;;;;;15.45;5.80;;;6.90;99.90;;;;;;5041969;28;20033;-50
2022/05/09 04:33:06;;;;;;;16.75;5.70;;;6.90;99.90;;;;;;5044502;28;20036;-48
2022/05/09 04:35:33;;;;;;;15.10;5.97;;;6.90;99.90;;;;;;5046106;28;20033;-48
2022/05/09 04:37:59;;;;;;;17.23;5.80;;;6.80;99.90;;;;;;5051970;28;20108;-52
2022/05/09 04:40:31;;;;;;;14.65;5.30;;;6.80;99.90;;;;;;5049003;28;20119;-48
2022/05/09 04:42:58;;;;;;;19.17;5.88;;;6.90;99.90;;;;;;5043579;28;20048;-48
2022/05/09 04:45:24;;;;;;;17.27;6.03;;;7.00;99.90;;;;;;5052137;28;20037;-48
2022/05/09 04:47:51;;;;;;;11.80;5.43;;;7.00;99.90;;;;;;5051793;28;20044;-47
2022/05/09 04:50:19;;;;;;;20.83;6.13;;;7.00;99.90;;;;;;5052258;28;20037;-45
2022/05/09 04:52:45;;;;;;;19.25;5.93;;;7.10;99.90;;;;;;5046094;28;20024;-46
2022/05/09 04:55:12;;;;;;;23.20;6.13;;;7.10;99.90;;;;;;5047322;28;20047;-48
2022/05/09 04:57:39;;;;;;;16.67;6.10;;;7.10;99.90;;;;;;5042472;28;20073;-50
2022/05/09 05:00:08;;;;;;;16.48;6.07;;;7.10;99.90;;;;;;5050231;28;20410;-49
2022/05/09 05:02:34;;;;;;;23.55;6.20;;;7.10;99.90;;;;;;5047138;28;20119;-48
2022/05/09 05:05:00;;;;;;;18.13;6.00;;;7.10;99.90;;;;;;5032654;28;20136;-47
2022/05/09 05:07:26;;;;;;;25.27;6.35;;;7.10;99.90;;;;;;5049425;28;20044;-48
2022/05/09 05:09:52;;;;;;;20.92;6.13;;;7.20;99.90;;;;;;5044665;28;20037;-49
2022/05/09 05:12:18;;;;;;;15.27;6.05;;;7.20;99.90;;;;;;5052051;28;20095;-48
2022/05/09 05:14:44;;;;;;;19.48;6.80;;;7.20;99.90;;;;;;5047307;28;20043;-48
2022/05/09 05:17:11;;;;;;;20.65;6.57;;;7.20;99.90;;;;;;5032577;28;20072;-47
2022/05/09 05:19:40;;;;;;;14.73;5.93;;;7.30;99.90;;;;;;5036859;28;20052;-52
2022/05/09 05:22:07;;;;;;;21.15;7.00;;;7.20;99.90;;;;;;5048763;28;20393;-49
2022/05/09 05:24:33;;;;;;;17.00;6.38;;;7.30;99.90;;;;;;5042099;28;20089;-49
2022/05/09 05:27:00;;;;;;;18.52;6.80;;;7.30;99.90;;;;;;5032662;28;20050;-47
2022/05/09 05:29:25;;;;;;;19.05;6.68;;;7.40;99.90;;;;;;5037879;28;20041;-49
2022/05/09 05:31:51;;;;;;;20.20;6.72;;;7.40;99.90;;;;;;5051287;28;20105;-48
2022/05/09 05:34:17;;;;;;;20.55;6.68;;;7.40;99.90;;;;;;5051559;28;20036;-46
2022/05/09 05:36:43;;;;;;;20.38;7.18;;;7.50;99.90;;;;;;5041896;28;20455;-49
2022/05/09 05:39:13;;;;;;;19.98;7.00;;;7.50;99.90;;;;;;5033575;28;20094;-46
2022/05/09 05:41:39;;;;;;;21.55;7.18;;;7.60;99.90;;;;;;5045234;28;20072;-52
2022/05/09 05:44:08;;;;;;;22.42;6.78;;;7.60;99.90;;;;;;5047946;28;20144;-47
2022/05/09 05:46:34;;;;;;;25.00;7.43;;;7.70;99.90;;;;;;5047011;28;20088;-48
2022/05/09 05:49:00;;;;;;;18.42;7.68;;;7.80;99.90;;;;;;5031257;28;20092;-47
2022/05/09 05:51:26;;;;;;;20.40;7.25;;;7.80;99.90;;;;;;5041472;28;20061;-47
2022/05/09 05:53:53;;;;;;;19.35;6.63;;;7.90;99.90;;;;;;5051264;28;20506;-49
2022/05/09 05:56:19;;;;;;;22.85;7.35;;;7.90;99.90;;;;;;5046351;28;20511;-48
2022/05/09 05:58:45;;;;;;;22.98;6.70;;;8.00;99.90;;;;;;5050725;28;20040;-48
2022/05/09 06:01:10;;;;;;;18.50;7.05;;;8.00;99.90;;;;;;5051130;28;20586;-46
2022/05/09 06:03:36;;;;;;;18.88;6.93;;;8.20;99.90;;;;;;5046886;28;20041;-47
2022/05/09 06:06:02;;;;;;;22.40;7.45;;;8.20;99.90;;;;;;5050482;28;20112;-49
2022/05/09 06:08:27;;;;;;;24.42;7.60;;;8.20;99.90;;;;;;5050572;28;20109;-47
2022/05/09 06:10:53;;;;;;;17.52;7.25;;;8.40;99.90;;;;;;5050950;28;20033;-48
2022/05/09 06:13:19;;;;;;;19.20;7.10;;;8.40;99.90;;;;;;5050925;28;20491;-49
2022/05/09 06:15:45;;;;;;;29.77;7.63;;;8.50;99.90;;;;;;5050913;28;20044;-48
2022/05/09 06:18:14;;;;;;;19.48;6.90;;;8.60;99.90;;;;;;5050594;28;20068;-49
2022/05/09 06:20:43;;;;;;;19.33;7.40;;;8.70;99.90;;;;;;5049119;28;20032;-47
2022/05/09 06:23:12;;;;;;;17.10;6.50;;;8.80;99.90;;;;;;5050776;28;20370;-48
2022/05/09 06:25:38;;;;;;;22.45;7.50;;;8.90;99.90;;;;;;5050798;28;20095;-49
2022/05/09 06:28:05;;;;;;;22.15;6.90;;;9.00;99.90;;;;;;5036530;28;20068;-46
2022/05/09 06:30:31;;;;;;;24.10;7.25;;;9.10;99.90;;;;;;5039307;28;20171;-49
2022/05/09 06:32:57;;;;;;;21.50;6.20;;;9.10;99.90;;;;;;5039656;28;20528;-48
2022/05/09 06:35:26;;;;;;;23.48;7.07;;;9.30;99.90;;;;;;5050349;28;20041;-51
2022/05/09 06:38:01;;;;;;;19.40;7.63;;;9.30;99.90;;;;;;5047787;28;20143;-47
2022/05/09 06:40:29;;;;;;;17.30;6.30;;;9.50;99.90;;;;;;5038963;28;20603;-48
2022/05/09 06:42:56;;;;;;;17.50;7.70;;;9.60;99.90;;;;;;5040142;28;20063;-47
2022/05/09 06:45:23;;;;;;;17.63;6.28;;;9.60;99.90;;;;;;5039210;28;20049;-47
2022/05/09 06:47:54;;;;;;;17.98;7.05;;;9.70;99.90;;;;;;5045541;28;20049;-48
2022/05/09 06:50:22;;;;;;;20.08;6.68;;;9.80;99.90;;;;;;5048781;28;20501;-47
2022/05/09 06:52:48;;;;;;;19.25;6.93;;;9.90;99.90;;;;;;5052053;28;20029;-50
2022/05/09 06:55:14;;;;;;;23.42;6.85;;;9.90;99.90;;;;;;5043158;28;20076;-49
2022/05/09 06:57:42;;;;;;;18.30;6.60;;;10.00;99.90;;;;;;5037040;28;20053;-49
2022/05/09 07:00:20;;;;;;;17.25;6.78;;;10.10;99.90;;;;;;5039953;28;20040;-49
2022/05/09 07:02:47;;;;;;;21.50;6.82;;;10.20;99.90;;;;;;5037243;28;20091;-47
2022/05/09 07:05:15;;;;;;;19.50;6.47;;;10.30;99.90;;;;;;5035886;28;20522;-48
2022/05/09 07:07:42;;;;;;;20.10;6.75;;;10.40;99.90;;;;;;5045669;28;20037;-51
2022/05/09 07:10:08;;;;;;;17.17;6.03;;;10.50;99.90;;;;;;5034468;28;20389;-48
2022/05/09 07:12:45;;;;;;;19.65;6.93;;;10.70;99.90;;;;;;5034853;28;20025;-47
2022/05/09 07:15:14;;;;;;;19.95;6.63;;;10.70;99.90;;;;;;5032635;28;20025;-48
2022/05/09 07:17:40;;;;;;;14.98;5.97;;;10.70;99.90;;;;;;5035352;28;20437;-47
2022/05/09 07:20:06;;;;;;;17.45;6.60;;;10.90;99.90;;;;;;5036279;28;20029;-50
2022/05/09 07:22:32;;;;;;;20.08;6.60;;;11.00;99.90;;;;;;5034375;28;20515;-46
2022/05/09 07:24:58;;;;;;;19.25;6.40;;;11.10;99.90;;;;;;5036183;28;20044;-49
2022/05/09 07:27:23;;;;;;;20.55;6.60;;;11.10;99.90;;;;;;5033627;28;20072;-48
2022/05/09 07:29:49;;;;;;;24.92;6.53;;;11.20;99.90;;;;;;5032763;28;20120;-47
2022/05/09 07:32:15;;;;;;;18.30;6.25;;;11.30;99.90;;;;;;5035300;28;20048;-48
2022/05/09 07:34:40;;;;;;;15.60;5.70;;;11.50;99.90;;;;;;5033082;28;20054;-48
2022/05/09 07:37:06;;;;;;;19.98;6.15;;;11.60;99.90;;;;;;5037301;28;20037;-49
2022/05/09 07:39:32;;;;;;;19.02;7.13;;;11.60;99.90;;;;;;5035443;28;20037;-48
2022/05/09 07:41:58;;;;;;;17.95;6.15;;;11.70;99.90;;;;;;5029887;28;20033;-47
2022/05/09 07:44:23;;;;;;;18.83;6.05;;;11.90;99.90;;;;;;5034059;28;20119;-49
2022/05/09 07:46:49;;;;;;;16.42;5.90;;;11.90;99.90;;;;;;5032303;28;20120;-46
2022/05/09 07:49:15;;;;;;;20.10;5.97;;;12.10;99.90;;;;;;5032153;28;20041;-48
2022/05/09 07:51:41;;;;;;;20.65;5.63;;;12.10;99.90;;;;;;5031650;28;20419;-46
2022/05/09 07:54:08;;;;;;;16.60;6.05;;;12.20;99.90;;;;;;5030761;28;20112;-48
2022/05/09 07:56:33;;;;;;;21.05;5.97;;;12.40;99.90;;;;;;5054787;28;20072;-48
2022/05/09 07:58:59;;;;;;;14.07;5.68;;;12.40;99.90;;;;;;5030350;28;20033;-47
2022/05/09 08:01:25;;;;;;;16.38;5.28;;;12.50;99.90;;;;;;5031074;28;20049;-48
2022/05/09 08:03:51;;;;;;;20.55;5.78;;;12.70;99.90;;;;;;5031588;28;20037;-50
2022/05/09 08:06:17;;;;;;;13.90;5.22;;;12.70;99.90;;;;;;5030512;28;20044;-47
2022/05/09 08:08:43;;;;;;;14.38;5.10;;;12.80;99.90;;;;;;5032459;28;20072;-48
2022/05/09 08:11:11;;;;;;;18.02;5.22;;;12.90;99.90;;;;;;5032276;28;20024;-50
2022/05/09 08:13:39;;;;;;;20.90;5.20;;;12.90;99.90;;;;;;5033275;28;20045;-50
2022/05/09 08:16:06;;;;;;;17.92;5.45;;;13.20;99.90;;;;;;5034357;28;20078;-48
2022/05/09 08:18:32;;;;;;;12.60;4.72;;;13.20;99.90;;;;;;5029990;28;20109;-46
2022/05/09 08:20:59;;;;;;;17.40;4.70;;;13.50;99.90;;;;;;5032229;28;20041;-49
2022/05/09 08:23:27;;;;;;;15.23;5.03;;;13.60;99.90;;;;;;5036938;28;20037;-49
2022/05/09 08:25:55;;;;;;;16.00;4.75;;;13.70;99.90;;;;;;5030140;28;20042;-50
2022/05/09 08:28:21;;;;;;;14.52;5.00;;;13.90;99.90;;;;;;5030395;28;20112;-46
2022/05/09 08:30:49;;;;;;;14.98;5.05;;;14.00;99.90;;;;;;5032283;28;20504;-50
2022/05/09 08:33:23;;;;;;;13.90;4.85;;;14.20;99.90;;;;;;5031137;28;20052;-50
2022/05/09 08:35:51;;;;;;;15.13;4.40;;;14.10;99.90;;;;;;5048149;28;20064;-46
2022/05/09 08:38:19;;;;;;;13.00;4.30;;;14.20;99.90;;;;;;5032191;28;20099;-52
2022/05/09 08:41:07;;;;;;;12.93;4.43;;;14.30;99.90;;;;;;5033136;28;20512;-50
2022/05/09 08:43:59;;;;;;;14.48;4.60;;;14.40;99.90;;;;;;5032697;28;20067;-48
2022/05/09 08:46:48;;;;;;;16.95;4.50;;;14.60;99.90;;;;;;5031385;28;20073;-48
2022/05/09 08:49:31;;;;;;;16.00;4.18;;;14.70;99.90;;;;;;5032084;28;20037;-48
2022/05/09 08:52:28;;;;;;;14.73;3.90;;;15.00;99.90;;;;;;5032698;28;20041;-51
2022/05/09 08:54:54;;;;;;;12.40;3.38;;;15.20;99.90;;;;;;5032294;28;20057;-49
2022/05/09 08:57:29;;;;;;;11.27;3.70;;;15.40;99.90;;;;;;5032816;28;20068;-50
2022/05/09 09:00:10;;;;;;;14.18;3.50;;;15.60;99.90;;;;;;5032335;28;20041;-48
2022/05/09 09:03:13;;;;;;;14.45;4.03;;;15.80;99.90;;;;;;5032452;28;20434;-48
2022/05/09 09:05:44;;;;;;;11.50;2.83;;;16.10;99.90;;;;;;5032040;28;20037;-47
2022/05/09 09:08:39;;;;;;;11.13;3.05;;;16.30;99.90;;;;;;5031408;28;20052;-50
2022/05/09 09:11:09;;;;;;;14.77;2.90;;;16.40;99.90;;;;;;5028661;28;20041;-48
2022/05/09 09:14:13;;;;;;;10.80;2.85;;;16.50;98.10;;;;;;5030383;28;20346;-50
2022/05/09 09:16:54;;;;;;;10.80;2.78;;;16.90;97.70;;;;;;5030312;28;20044;-48
2022/05/09 09:19:40;;;;;;;10.75;2.50;;;17.10;95.70;;;;;;5031154;28;20049;-51
2022/05/09 09:22:50;;;;;;;10.68;2.80;;;17.30;95.00;;;;;;5031753;28;20136;-48
2022/05/09 09:25:34;;;;;;;12.32;3.05;;;17.40;94.00;;;;;;5050165;28;20150;-49
2022/05/09 09:28:07;;;;;;;12.18;2.75;;;17.70;96.00;;;;;;5051873;28;20063;-48
2022/05/09 09:30:40;;;;;;;8.65;2.38;;;17.70;95.70;;;;;;5051513;28;20064;-47
2022/05/09 09:33:09;;;;;;;16.20;2.88;;;17.70;93.20;;;;;;5051892;28;20044;-48
2022/05/09 09:35:35;;;;;;;12.52;3.08;;;17.90;94.20;;;;;;5051598;28;20048;-50
2022/05/09 09:38:14;;;;;;;10.88;2.65;;;18.10;94.40;;;;;;5051035;28;20042;-51
2022/05/09 09:40:41;;;;;;;9.07;2.40;;;18.10;93.40;;;;;;5051687;28;20029;-50
2022/05/09 09:43:07;;;;;;;9.80;2.40;;;18.10;92.40;;;;;;5051325;28;20036;-49
2022/05/09 09:45:40;;;;;;;10.90;2.50;;;18.00;88.50;;;;;;5051493;28;20048;-49
2022/05/09 09:48:20;;;;;;;10.43;2.65;;;18.10;91.60;;;;;;5051393;28;20047;-49
2022/05/09 09:50:56;;;;;;;16.55;3.17;;;18.40;91.60;;;;;;5051402;28;20384;-46
2022/05/09 09:53:39;;;;;;;8.23;2.08;;;18.50;90.20;;;;;;5050870;28;20036;-50
2022/05/09 09:56:25;;;;;;;10.32;2.40;;;18.50;90.40;;;;;;5050890;28;20148;-48
2022/05/09 09:59:18;;;;;;;15.32;2.65;;;18.60;90.00;;;;;;5050866;28;20084;-51
2022/05/09 10:02:04;;;;;;;9.95;3.05;;;18.70;90.60;;;;;;5050840;28;20053;-49
2022/05/09 10:04:30;;;;;;;10.15;2.55;;;18.70;89.40;;;;;;5050662;28;20045;-49
2022/05/09 10:07:07;;;;;;;13.55;2.85;;;18.70;90.50;;;;;;5051195;28;20040;-47
2022/05/09 10:09:45;;;;;;;11.43;2.80;;;18.70;88.60;;;;;;5049289;28;20037;-47
2022/05/09 10:12:14;;;;;;;9.38;2.15;;;18.70;87.80;;;;;;5050509;28;20044;-50
2022/05/09 10:14:41;;;;;;;12.25;2.88;;;18.90;90.20;;;;;;5050726;28;20491;-47
2022/05/09 10:17:18;;;;;;;12.75;3.30;;;18.80;90.50;;;;;;5050798;28;20460;-48
2022/05/09 10:19:44;;;;;;;10.43;2.50;;;18.90;88.50;;;;;;5050904;28;20045;-49
2022/05/09 10:25:09;;;;;;;11.43;2.70;;;19.30;86.90;;;;;;5050533;28;20102;-50
2022/05/09 10:27:37;;;;;;;11.85;2.83;;;19.00;83.60;;;;;;5050729;28;20044;-47
2022/05/09 10:30:08;;;;;;;9.80;2.50;;;19.20;87.90;;;;;;5050376;28;20029;-48
2022/05/09 10:32:56;;;;;;;12.20;2.22;;;19.30;87.40;;;;;;5050836;28;20037;-50
2022/05/09 10:35:25;;;;;;;11.68;2.03;;;19.60;85.50;;;;;;5049165;28;20032;-51
2022/05/09 10:37:54;;;;;;;10.20;2.30;;;19.50;84.40;;;;;;5050236;28;20037;-49
2022/05/09 10:40:43;;;;;;;9.73;2.25;;;19.60;82.60;;;;;;5031888;28;20053;-46
2022/05/09 10:43:21;;;;;;;7.03;2.08;;;19.70;86.50;;;;;;5030929;28;20076;-47
2022/05/09 10:45:49;;;;;;;5.57;2.10;;;19.80;82.50;;;;;;5030695;28;20049;-49
2022/05/09 10:48:36;;;;;;;8.18;2.47;;;19.60;78.50;;;;;;5030736;28;20087;-50
2022/05/09 10:51:11;;;;;;;9.30;2.55;;;19.60;79.30;;;;;;5030794;28;20472;-50
2022/05/09 10:54:12;;;;;;;9.45;2.50;;;19.90;83.40;;;;;;5030797;28;20092;-48
2022/05/09 10:57:01;;;;;;;9.32;2.45;;;20.00;84.60;;;;;;5029891;28;20132;-47
2022/05/09 10:59:30;;;;;;;10.77;2.50;;;20.20;83.10;;;;;;5030685;28;20099;-49
2022/05/09 11:02:21;;;;;;;12.93;3.00;;;20.40;81.80;;;;;;5030809;28;20037;-49
2022/05/09 11:04:47;;;;;;;10.55;2.83;;;20.20;82.20;;;;;;5030359;28;20641;-50
2022/05/09 11:07:41;;;;;;;10.65;2.63;;;20.30;81.40;;;;;;5030631;28;20124;-52
2022/05/09 11:10:32;;;;;;;10.77;2.40;;;20.30;78.50;;;;;;5028624;28;20075;-50
2022/05/09 11:13:07;;;;;;;11.55;2.20;;;20.30;80.90;;;;;;5030536;28;20042;-51
2022/05/09 11:15:57;;;;;;;9.00;2.30;;;20.40;84.40;;;;;;5030267;28;20033;-48
2022/05/09 11:18:49;;;;;;;12.07;2.80;;;20.70;83.20;;;;;;5030417;28;20033;-47
2022/05/09 11:21:33;;;;;;;10.35;3.03;;;20.80;81.60;;;;;;5030543;28;20033;-48
2022/05/09 11:24:11;;;;;;;10.20;2.75;;;20.90;82.60;;;;;;5030336;28;20046;-47
2022/05/09 11:27:04;;;;;;;7.43;2.70;;;21.00;79.90;;;;;;5030463;28;20479;-49
2022/05/09 11:29:37;;;;;;;12.13;2.65;;;20.90;79.20;;;;;;5030388;28;20147;-51
2022/05/09 11:32:12;;;;;;;10.60;3.15;;;21.10;79.70;;;;;;5044448;28;20123;-48
2022/05/09 11:34:44;;;;;;;9.65;2.70;;;21.40;83.20;;;;;;5031926;28;20041;-48
2022/05/09 11:37:43;;;;;;;9.05;2.50;;;21.40;80.20;;;;;;5033759;28;20071;-49
2022/05/09 11:40:40;;;;;;;11.10;3.28;;;21.60;83.40;;;;;;5033643;28;20509;-48
2022/05/09 11:43:37;;;;;;;7.53;2.92;;;21.40;79.70;;;;;;5033983;28;20049;-49
2022/05/09 11:46:05;;;;;;;9.60;2.60;;;21.70;80.40;;;;;;5034017;28;20037;-50
2022/05/09 11:48:46;;;;;;;11.23;2.95;;;21.70;79.60;;;;;;5033842;28;20037;-49
2022/05/09 11:51:48;;;;;;;10.88;3.13;;;21.90;78.70;;;;;;5033735;28;20041;-49
2022/05/09 11:54:22;;;;;;;9.75;2.67;;;22.20;79.90;;;;;;5033457;28;20030;-51
2022/05/09 11:56:51;;;;;;;7.85;2.25;;;21.90;75.40;;;;;;5033574;28;20042;-50
2022/05/09 11:59:34;;;;;;;11.43;2.95;;;22.10;79.40;;;;;;5033616;28;20489;-49
2022/05/09 12:02:07;;;;;;;10.37;2.53;;;22.30;79.40;;;;;;5033599;28;20405;-49
2022/05/09 12:04:35;;;;;;;10.88;2.83;;;22.40;75.40;;;;;;5033674;28;20068;-52
2022/05/09 12:07:21;;;;;;;7.15;2.75;;;22.20;75.80;;;;;;5033540;28;20075;-52
2022/05/09 12:10:02;;;;;;;11.32;2.35;;;22.50;75.10;;;;;;5032654;28;20128;-50
2022/05/09 12:12:37;;;;;;;9.75;2.63;;;22.60;76.00;;;;;;5033330;28;20056;-52
2022/05/09 12:15:09;;;;;;;9.52;2.33;;;22.50;70.00;;;;;;5033279;28;20033;-51
2022/05/09 12:17:39;;;;;;;8.38;2.55;;;22.60;70.60;;;;;;5033334;28;20041;-48
2022/05/09 12:20:09;;;;;;;8.70;2.45;;;22.40;71.10;;;;;;5033089;28;20477;-50
2022/05/09 12:22:47;;;;;;;7.93;2.53;;;22.80;71.70;;;;;;5033301;28;20490;-50
2022/05/09 12:25:36;;;;;;;7.38;2.50;;;23.00;71.50;;;;;;5033191;28;20076;-49
2022/05/09 12:28:20;;;;;;;10.18;2.78;;;22.80;70.70;;;;;;5028346;28;20484;-48
2022/05/09 12:30:56;;;;;;;9.00;2.10;;;23.20;72.30;;;;;;5052722;28;20037;-51
2022/05/09 12:33:41;;;;;;;8.50;2.90;;;23.40;71.10;;;;;;5052561;28;20148;-51
2022/05/09 12:36:29;;;;;;;9.05;2.88;;;23.50;70.70;;;;;;5052524;28;20528;-50
2022/05/09 12:39:00;;;;;;;11.85;2.40;;;23.40;69.10;;;;;;5051944;28;20037;-49
2022/05/09 12:41:46;;;;;;;18.98;3.30;;;23.90;70.10;;;;;;5052879;28;20045;-48
2022/05/09 12:44:17;;;;;;;8.00;2.75;;;23.80;66.90;;;;;;5052774;28;20148;-49
2022/05/09 12:46:49;;;;;;;8.52;2.50;;;24.10;65.20;;;;;;5052319;28;20033;-51
2022/05/09 12:49:18;;;;;;;9.50;2.55;;;24.00;67.40;;;;;;5052536;28;20048;-49
2022/05/09 12:51:56;;;;;;;9.27;2.60;;;24.30;66.10;;;;;;5052615;28;20049;-49
2022/05/09 12:54:25;;;;;;;10.30;2.40;;;24.30;67.50;;;;;;5052059;28;20124;-48
2022/05/09 12:56:59;;;;;;;6.82;2.35;;;24.10;66.00;;;;;;5052589;28;20617;-48
2022/05/09 12:59:27;;;;;;;7.18;2.58;;;24.40;65.80;;;;;;5050919;28;20052;-50
2022/05/09 13:02:01;;;;;;;6.80;2.35;;;24.40;65.50;;;;;;5052211;28;20035;-50
2022/05/09 13:04:34;;;;;;;7.93;2.38;;;24.50;62.90;;;;;;5052371;28;20043;-48
2022/05/09 13:07:05;;;;;;;7.13;2.42;;;24.10;63.80;;;;;;5052368;28;20087;-47
2022/05/09 13:09:35;;;;;;;9.63;2.50;;;24.00;63.30;;;;;;5051475;28;20062;-48
2022/05/09 13:12:14;;;;;;;8.60;2.95;;;24.40;64.70;;;;;;5051885;28;20075;-48